sensor_id;sensor_type;location;lat;lon;timestamp;P1;durP1;ratioP1;P2;durP2;ratioP2
76073;SDS011;64776;42.636;24.358;2023-03-01T00:00:39;7.60;;;2.95;;
76073;SDS011;64776;42.636;24.358;2023-03-01T00:03:41;10.60;;;5.18;;
76073;SDS011;64776;42.636;24.358;2023-03-01T00:06:42;13.10;;;5.68;;
76073;SDS011;64776;42.636;24.358;2023-03-01T00:09:43;10.80;;;4.30;;
76073;SDS011;64776;42.636;24.358;2023-03-01T00:12:44;8.52;;;4.00;;
76073;SDS011;64776;42.636;24.358;2023-03-01T00:15:46;5.30;;;1.45;;
76073;SDS011;64776;42.636;24.358;2023-03-01T00:18:47;6.28;;;2.97;;
76073;SDS011;64776;42.636;24.358;2023-03-01T00:21:48;13.00;;;4.57;;
76073;SDS011;64776;42.636;24.358;2023-03-01T00:24:49;15.32;;;7.10;;
76073;SDS011;64776;42.636;24.358;2023-03-01T00:27:50;12.25;;;5.88;;
76073;SDS011;64776;42.636;24.358;2023-03-01T00:30:52;11.93;;;6.15;;
76073;SDS011;64776;42.636;24.358;2023-03-01T00:33:53;11.05;;;4.20;;
76073;SDS011;64776;42.636;24.358;2023-03-01T00:36:54;30.45;;;9.13;;
76073;SDS011;64776;42.636;24.358;2023-03-01T00:39:55;18.02;;;5.57;;
76073;SDS011;64776;42.636;24.358;2023-03-01T00:42:56;11.57;;;4.70;;
76073;SDS011;64776;42.636;24.358;2023-03-01T00:46:02;20.20;;;7.05;;
76073;SDS011;64776;42.636;24.358;2023-03-01T00:49:03;14.45;;;5.40;;
76073;SDS011;64776;42.636;24.358;2023-03-01T00:52:04;13.07;;;5.63;;
76073;SDS011;64776;42.636;24.358;2023-03-01T00:55:05;19.65;;;9.68;;
76073;SDS011;64776;42.636;24.358;2023-03-01T00:58:07;11.27;;;5.50;;
76073;SDS011;64776;42.636;24.358;2023-03-01T01:01:09;10.20;;;4.20;;
76073;SDS011;64776;42.636;24.358;2023-03-01T01:04:12;11.60;;;5.60;;
76073;SDS011;64776;42.636;24.358;2023-03-01T01:07:13;11.43;;;4.05;;
76073;SDS011;64776;42.636;24.358;2023-03-01T01:10:15;12.52;;;5.55;;
76073;SDS011;64776;42.636;24.358;2023-03-01T01:13:16;14.50;;;5.75;;
76073;SDS011;64776;42.636;24.358;2023-03-01T01:16:19;15.75;;;5.28;;
76073;SDS011;64776;42.636;24.358;2023-03-01T01:19:20;8.77;;;3.60;;
76073;SDS011;64776;42.636;24.358;2023-03-01T01:22:21;5.97;;;2.70;;
76073;SDS011;64776;42.636;24.358;2023-03-01T01:25:22;7.13;;;3.00;;
76073;SDS011;64776;42.636;24.358;2023-03-01T01:28:23;10.18;;;4.15;;
76073;SDS011;64776;42.636;24.358;2023-03-01T01:31:25;10.05;;;3.90;;
76073;SDS011;64776;42.636;24.358;2023-03-01T01:34:27;6.85;;;1.65;;
76073;SDS011;64776;42.636;24.358;2023-03-01T01:37:28;4.38;;;2.20;;
76073;SDS011;64776;42.636;24.358;2023-03-01T01:40:29;5.45;;;2.58;;
76073;SDS011;64776;42.636;24.358;2023-03-01T01:43:30;8.82;;;3.15;;
76073;SDS011;64776;42.636;24.358;2023-03-01T01:46:35;10.68;;;4.13;;
76073;SDS011;64776;42.636;24.358;2023-03-01T01:49:40;9.38;;;3.58;;
76073;SDS011;64776;42.636;24.358;2023-03-01T01:52:44;7.68;;;3.47;;
76073;SDS011;64776;42.636;24.358;2023-03-01T01:55:49;6.07;;;2.80;;
76073;SDS011;64776;42.636;24.358;2023-03-01T01:58:53;3.00;;;1.30;;
76073;SDS011;64776;42.636;24.358;2023-03-01T02:01:56;3.13;;;1.25;;
76073;SDS011;64776;42.636;24.358;2023-03-01T02:05:02;5.20;;;1.52;;
76073;SDS011;64776;42.636;24.358;2023-03-01T02:08:10;5.57;;;2.47;;
76073;SDS011;64776;42.636;24.358;2023-03-01T02:11:12;6.15;;;1.55;;
76073;SDS011;64776;42.636;24.358;2023-03-01T02:14:14;4.22;;;1.73;;
76073;SDS011;64776;42.636;24.358;2023-03-01T02:17:17;4.30;;;1.20;;
76073;SDS011;64776;42.636;24.358;2023-03-01T02:20:21;4.60;;;1.55;;
76073;SDS011;64776;42.636;24.358;2023-03-01T02:23:27;3.00;;;1.95;;
76073;SDS011;64776;42.636;24.358;2023-03-01T02:26:32;6.15;;;1.88;;
76073;SDS011;64776;42.636;24.358;2023-03-01T02:29:38;4.07;;;1.27;;
76073;SDS011;64776;42.636;24.358;2023-03-01T02:32:39;7.25;;;2.20;;
76073;SDS011;64776;42.636;24.358;2023-03-01T02:35:41;5.78;;;1.70;;
76073;SDS011;64776;42.636;24.358;2023-03-01T02:38:42;3.92;;;1.50;;
76073;SDS011;64776;42.636;24.358;2023-03-01T02:41:46;4.97;;;2.08;;
76073;SDS011;64776;42.636;24.358;2023-03-01T02:44:49;4.80;;;2.53;;
76073;SDS011;64776;42.636;24.358;2023-03-01T02:47:53;6.68;;;2.00;;
76073;SDS011;64776;42.636;24.358;2023-03-01T02:51:00;6.10;;;2.05;;
76073;SDS011;64776;42.636;24.358;2023-03-01T02:54:09;5.32;;;2.38;;
76073;SDS011;64776;42.636;24.358;2023-03-01T02:57:16;8.68;;;4.05;;
76073;SDS011;64776;42.636;24.358;2023-03-01T03:00:21;4.15;;;2.05;;
76073;SDS011;64776;42.636;24.358;2023-03-01T03:06:25;3.38;;;1.13;;
76073;SDS011;64776;42.636;24.358;2023-03-01T03:09:26;7.38;;;1.73;;
76073;SDS011;64776;42.636;24.358;2023-03-01T03:12:27;5.28;;;1.92;;
76073;SDS011;64776;42.636;24.358;2023-03-01T03:15:29;11.10;;;4.15;;
76073;SDS011;64776;42.636;24.358;2023-03-01T03:18:31;16.80;;;6.53;;
76073;SDS011;64776;42.636;24.358;2023-03-01T03:21:31;9.00;;;3.60;;
76073;SDS011;64776;42.636;24.358;2023-03-01T03:24:32;9.05;;;3.03;;
76073;SDS011;64776;42.636;24.358;2023-03-01T03:27:33;6.72;;;2.20;;
76073;SDS011;64776;42.636;24.358;2023-03-01T03:30:36;6.95;;;2.35;;
76073;SDS011;64776;42.636;24.358;2023-03-01T03:33:37;14.70;;;6.28;;
76073;SDS011;64776;42.636;24.358;2023-03-01T03:36:38;7.25;;;3.38;;
76073;SDS011;64776;42.636;24.358;2023-03-01T03:39:39;8.15;;;2.92;;
76073;SDS011;64776;42.636;24.358;2023-03-01T03:42:40;10.10;;;3.55;;
76073;SDS011;64776;42.636;24.358;2023-03-01T03:45:43;11.30;;;4.22;;
76073;SDS011;64776;42.636;24.358;2023-03-01T03:48:45;13.93;;;4.68;;
76073;SDS011;64776;42.636;24.358;2023-03-01T03:51:45;13.82;;;5.85;;
76073;SDS011;64776;42.636;24.358;2023-03-01T03:54:46;18.25;;;7.95;;
76073;SDS011;64776;42.636;24.358;2023-03-01T03:57:47;25.05;;;11.15;;
76073;SDS011;64776;42.636;24.358;2023-03-01T04:00:51;19.60;;;9.40;;
76073;SDS011;64776;42.636;24.358;2023-03-01T04:03:53;25.60;;;12.23;;
76073;SDS011;64776;42.636;24.358;2023-03-01T04:06:54;20.73;;;10.02;;
76073;SDS011;64776;42.636;24.358;2023-03-01T04:09:54;21.15;;;10.20;;
76073;SDS011;64776;42.636;24.358;2023-03-01T04:12:55;17.27;;;6.47;;
76073;SDS011;64776;42.636;24.358;2023-03-01T04:15:57;14.02;;;7.43;;
76073;SDS011;64776;42.636;24.358;2023-03-01T04:18:58;14.23;;;7.88;;
76073;SDS011;64776;42.636;24.358;2023-03-01T04:21:59;15.30;;;7.30;;
76073;SDS011;64776;42.636;24.358;2023-03-01T04:25:00;12.65;;;6.88;;
76073;SDS011;64776;42.636;24.358;2023-03-01T04:28:01;12.73;;;6.22;;
76073;SDS011;64776;42.636;24.358;2023-03-01T04:31:03;18.48;;;8.93;;
76073;SDS011;64776;42.636;24.358;2023-03-01T04:34:25;17.05;;;8.00;;
76073;SDS011;64776;42.636;24.358;2023-03-01T04:37:26;8.52;;;3.83;;
76073;SDS011;64776;42.636;24.358;2023-03-01T04:40:27;9.95;;;3.97;;
76073;SDS011;64776;42.636;24.358;2023-03-01T04:43:27;13.85;;;5.72;;
76073;SDS011;64776;42.636;24.358;2023-03-01T04:46:30;12.95;;;4.80;;
76073;SDS011;64776;42.636;24.358;2023-03-01T04:49:30;20.83;;;9.70;;
76073;SDS011;64776;42.636;24.358;2023-03-01T04:52:31;16.60;;;5.35;;
76073;SDS011;64776;42.636;24.358;2023-03-01T04:55:33;12.25;;;4.13;;
76073;SDS011;64776;42.636;24.358;2023-03-01T04:58:34;10.18;;;4.43;;
76073;SDS011;64776;42.636;24.358;2023-03-01T05:01:36;16.90;;;5.75;;
76073;SDS011;64776;42.636;24.358;2023-03-01T05:04:37;14.63;;;4.40;;
76073;SDS011;64776;42.636;24.358;2023-03-01T05:07:37;9.23;;;2.72;;
76073;SDS011;64776;42.636;24.358;2023-03-01T05:10:38;17.30;;;6.25;;
76073;SDS011;64776;42.636;24.358;2023-03-01T05:13:39;41.35;;;17.50;;
76073;SDS011;64776;42.636;24.358;2023-03-01T05:16:42;49.83;;;19.92;;
76073;SDS011;64776;42.636;24.358;2023-03-01T05:19:42;48.47;;;18.42;;
76073;SDS011;64776;42.636;24.358;2023-03-01T05:22:43;48.78;;;20.77;;
76073;SDS011;64776;42.636;24.358;2023-03-01T05:25:44;49.03;;;19.35;;
76073;SDS011;64776;42.636;24.358;2023-03-01T05:28:45;33.28;;;14.75;;
76073;SDS011;64776;42.636;24.358;2023-03-01T05:31:47;32.65;;;11.30;;
76073;SDS011;64776;42.636;24.358;2023-03-01T05:34:48;36.17;;;16.15;;
76073;SDS011;64776;42.636;24.358;2023-03-01T05:37:49;48.95;;;20.35;;
76073;SDS011;64776;42.636;24.358;2023-03-01T05:40:50;32.67;;;13.85;;
76073;SDS011;64776;42.636;24.358;2023-03-01T05:43:52;21.70;;;10.05;;
76073;SDS011;64776;42.636;24.358;2023-03-01T05:46:54;11.82;;;4.60;;
76073;SDS011;64776;42.636;24.358;2023-03-01T05:49:55;26.45;;;11.05;;
76073;SDS011;64776;42.636;24.358;2023-03-01T05:52:57;24.58;;;9.77;;
76073;SDS011;64776;42.636;24.358;2023-03-01T05:55:59;35.72;;;15.25;;
76073;SDS011;64776;42.636;24.358;2023-03-01T05:59:02;36.95;;;15.95;;
76073;SDS011;64776;42.636;24.358;2023-03-01T06:02:06;63.97;;;25.50;;
76073;SDS011;64776;42.636;24.358;2023-03-01T06:05:07;55.50;;;23.70;;
76073;SDS011;64776;42.636;24.358;2023-03-01T06:08:10;42.28;;;16.90;;
76073;SDS011;64776;42.636;24.358;2023-03-01T06:11:11;36.03;;;15.43;;
76073;SDS011;64776;42.636;24.358;2023-03-01T06:14:12;21.15;;;9.80;;
76073;SDS011;64776;42.636;24.358;2023-03-01T06:17:14;36.90;;;17.80;;
76073;SDS011;64776;42.636;24.358;2023-03-01T06:20:16;25.27;;;10.25;;
76073;SDS011;64776;42.636;24.358;2023-03-01T06:23:18;16.23;;;5.88;;
76073;SDS011;64776;42.636;24.358;2023-03-01T06:26:19;16.48;;;7.90;;
76073;SDS011;64776;42.636;24.358;2023-03-01T06:29:19;18.08;;;8.68;;
76073;SDS011;64776;42.636;24.358;2023-03-01T06:32:22;13.52;;;6.25;;
76073;SDS011;64776;42.636;24.358;2023-03-01T06:35:23;19.00;;;7.47;;
76073;SDS011;64776;42.636;24.358;2023-03-01T06:38:24;16.35;;;6.78;;
76073;SDS011;64776;42.636;24.358;2023-03-01T06:41:25;12.63;;;4.97;;
76073;SDS011;64776;42.636;24.358;2023-03-01T06:44:26;16.88;;;6.82;;
76073;SDS011;64776;42.636;24.358;2023-03-01T06:47:29;12.50;;;4.25;;
76073;SDS011;64776;42.636;24.358;2023-03-01T06:50:30;8.57;;;3.65;;
76073;SDS011;64776;42.636;24.358;2023-03-01T06:53:31;11.30;;;6.03;;
76073;SDS011;64776;42.636;24.358;2023-03-01T06:56:32;33.25;;;13.15;;
76073;SDS011;64776;42.636;24.358;2023-03-01T06:59:33;19.33;;;10.85;;
76073;SDS011;64776;42.636;24.358;2023-03-01T07:02:35;52.50;;;28.45;;
76073;SDS011;64776;42.636;24.358;2023-03-01T07:05:36;51.03;;;18.60;;
76073;SDS011;64776;42.636;24.358;2023-03-01T07:08:36;29.92;;;15.68;;
76073;SDS011;64776;42.636;24.358;2023-03-01T07:11:37;11.95;;;6.18;;
76073;SDS011;64776;42.636;24.358;2023-03-01T07:14:38;13.52;;;8.50;;
76073;SDS011;64776;42.636;24.358;2023-03-01T07:17:40;21.08;;;10.10;;
76073;SDS011;64776;42.636;24.358;2023-03-01T07:20:41;19.02;;;8.57;;
76073;SDS011;64776;42.636;24.358;2023-03-01T07:23:42;24.08;;;16.33;;
76073;SDS011;64776;42.636;24.358;2023-03-01T07:26:43;598.85;;;227.15;;
76073;SDS011;64776;42.636;24.358;2023-03-01T07:29:43;603.30;;;260.60;;
76073;SDS011;64776;42.636;24.358;2023-03-01T07:32:45;1689.93;;;805.15;;
76073;SDS011;64776;42.636;24.358;2023-03-01T07:35:46;705.33;;;387.13;;
76073;SDS011;64776;42.636;24.358;2023-03-01T07:38:47;539.88;;;260.65;;
76073;SDS011;64776;42.636;24.358;2023-03-01T07:41:48;196.65;;;89.35;;
76073;SDS011;64776;42.636;24.358;2023-03-01T07:44:49;747.38;;;459.13;;
76073;SDS011;64776;42.636;24.358;2023-03-01T07:47:51;885.92;;;547.00;;
76073;SDS011;64776;42.636;24.358;2023-03-01T07:50:52;345.38;;;171.05;;
76073;SDS011;64776;42.636;24.358;2023-03-01T07:53:53;184.70;;;81.18;;
76073;SDS011;64776;42.636;24.358;2023-03-01T07:56:55;85.60;;;42.60;;
76073;SDS011;64776;42.636;24.358;2023-03-01T07:59:56;160.68;;;102.97;;
76073;SDS011;64776;42.636;24.358;2023-03-01T08:53:46;203.82;;;122.65;;
76073;SDS011;64776;42.636;24.358;2023-03-01T08:56:48;119.35;;;69.18;;
76073;SDS011;64776;42.636;24.358;2023-03-01T08:59:49;118.28;;;78.72;;
76073;SDS011;64776;42.636;24.358;2023-03-01T09:02:50;92.22;;;61.65;;
76073;SDS011;64776;42.636;24.358;2023-03-01T09:05:51;100.03;;;67.45;;
76073;SDS011;64776;42.636;24.358;2023-03-01T09:08:53;62.50;;;43.90;;
76073;SDS011;64776;42.636;24.358;2023-03-01T09:11:54;119.25;;;89.38;;
76073;SDS011;64776;42.636;24.358;2023-03-01T09:14:55;74.03;;;52.83;;
76073;SDS011;64776;42.636;24.358;2023-03-01T09:17:56;73.60;;;48.58;;
76073;SDS011;64776;42.636;24.358;2023-03-01T09:21:00;101.05;;;76.47;;
76073;SDS011;64776;42.636;24.358;2023-03-01T09:24:03;42.60;;;27.02;;
76073;SDS011;64776;42.636;24.358;2023-03-01T09:27:05;38.63;;;25.88;;
76073;SDS011;64776;42.636;24.358;2023-03-01T09:30:06;38.70;;;26.45;;
76073;SDS011;64776;42.636;24.358;2023-03-01T09:33:08;43.22;;;30.30;;
76073;SDS011;64776;42.636;24.358;2023-03-01T09:36:10;14.80;;;7.82;;
76073;SDS011;64776;42.636;24.358;2023-03-01T09:39:14;14.77;;;7.55;;
76073;SDS011;64776;42.636;24.358;2023-03-01T09:42:14;76.85;;;55.45;;
76073;SDS011;64776;42.636;24.358;2023-03-01T09:45:18;23.95;;;13.65;;
76073;SDS011;64776;42.636;24.358;2023-03-01T09:48:27;12.85;;;6.55;;
76073;SDS011;64776;42.636;24.358;2023-03-01T09:51:34;25.85;;;18.83;;
76073;SDS011;64776;42.636;24.358;2023-03-01T09:54:37;15.00;;;8.63;;
76073;SDS011;64776;42.636;24.358;2023-03-01T09:57:39;38.08;;;19.38;;
76073;SDS011;64776;42.636;24.358;2023-03-01T10:00:46;16.08;;;8.55;;
76073;SDS011;64776;42.636;24.358;2023-03-01T10:03:54;12.27;;;6.03;;
76073;SDS011;64776;42.636;24.358;2023-03-01T10:07:14;67.60;;;47.38;;
76073;SDS011;64776;42.636;24.358;2023-03-01T10:10:27;30.60;;;19.42;;
76073;SDS011;64776;42.636;24.358;2023-03-01T10:13:34;17.27;;;8.90;;
76073;SDS011;64776;42.636;24.358;2023-03-01T10:16:46;15.90;;;8.45;;
76073;SDS011;64776;42.636;24.358;2023-03-01T10:19:52;22.23;;;9.77;;
76073;SDS011;64776;42.636;24.358;2023-03-01T10:22:53;15.00;;;7.25;;
76073;SDS011;64776;42.636;24.358;2023-03-01T10:26:05;11.88;;;6.03;;
76073;SDS011;64776;42.636;24.358;2023-03-01T10:29:12;8.75;;;3.95;;
76073;SDS011;64776;42.636;24.358;2023-03-01T10:32:14;8.98;;;4.00;;
76073;SDS011;64776;42.636;24.358;2023-03-01T10:35:16;9.63;;;4.95;;
76073;SDS011;64776;42.636;24.358;2023-03-01T10:38:19;8.82;;;3.33;;
76073;SDS011;64776;42.636;24.358;2023-03-01T10:41:22;13.10;;;7.18;;
76073;SDS011;64776;42.636;24.358;2023-03-01T10:44:43;22.85;;;10.00;;
76073;SDS011;64776;42.636;24.358;2023-03-01T10:47:45;24.85;;;8.48;;
76073;SDS011;64776;42.636;24.358;2023-03-01T10:50:46;14.25;;;5.00;;
76073;SDS011;64776;42.636;24.358;2023-03-01T10:53:48;14.85;;;9.23;;
76073;SDS011;64776;42.636;24.358;2023-03-01T10:56:51;16.88;;;13.02;;
76073;SDS011;64776;42.636;24.358;2023-03-01T11:00:00;11.55;;;5.60;;
76073;SDS011;64776;42.636;24.358;2023-03-01T11:03:16;10.93;;;4.82;;
76073;SDS011;64776;42.636;24.358;2023-03-01T11:06:20;8.90;;;3.38;;
76073;SDS011;64776;42.636;24.358;2023-03-01T11:09:22;10.23;;;4.32;;
76073;SDS011;64776;42.636;24.358;2023-03-01T11:12:25;15.52;;;6.50;;
76073;SDS011;64776;42.636;24.358;2023-03-01T11:15:26;9.90;;;2.85;;
76073;SDS011;64776;42.636;24.358;2023-03-01T11:18:29;10.10;;;2.90;;
76073;SDS011;64776;42.636;24.358;2023-03-01T11:21:31;6.10;;;2.05;;
76073;SDS011;64776;42.636;24.358;2023-03-01T11:24:37;16.30;;;9.35;;
76073;SDS011;64776;42.636;24.358;2023-03-01T11:27:43;12.73;;;5.43;;
76073;SDS011;64776;42.636;24.358;2023-03-01T11:30:46;26.15;;;11.45;;
76073;SDS011;64776;42.636;24.358;2023-03-01T11:33:53;26.05;;;13.25;;
76073;SDS011;64776;42.636;24.358;2023-03-01T11:36:58;31.35;;;14.65;;
76073;SDS011;64776;42.636;24.358;2023-03-01T11:40:04;20.65;;;8.48;;
76073;SDS011;64776;42.636;24.358;2023-03-01T11:43:15;11.00;;;4.45;;
76073;SDS011;64776;42.636;24.358;2023-03-01T11:46:29;16.58;;;7.65;;
76073;SDS011;64776;42.636;24.358;2023-03-01T11:49:46;19.98;;;8.25;;
76073;SDS011;64776;42.636;24.358;2023-03-01T11:52:59;11.75;;;4.35;;
76073;SDS011;64776;42.636;24.358;2023-03-01T11:56:16;8.18;;;2.00;;
76073;SDS011;64776;42.636;24.358;2023-03-01T12:03:02;19.35;;;8.75;;
76073;SDS011;64776;42.636;24.358;2023-03-01T12:10:04;28.15;;;12.05;;
76073;SDS011;64776;42.636;24.358;2023-03-01T12:13:23;28.25;;;12.68;;
76073;SDS011;64776;42.636;24.358;2023-03-01T12:16:44;8.93;;;3.35;;
76073;SDS011;64776;42.636;24.358;2023-03-01T12:20:12;6.57;;;2.10;;
76073;SDS011;64776;42.636;24.358;2023-03-01T12:23:25;8.15;;;4.47;;
76073;SDS011;64776;42.636;24.358;2023-03-01T12:26:47;13.35;;;4.32;;
76073;SDS011;64776;42.636;24.358;2023-03-01T12:30:03;18.55;;;8.90;;
76073;SDS011;64776;42.636;24.358;2023-03-01T12:33:21;11.10;;;5.70;;
76073;SDS011;64776;42.636;24.358;2023-03-01T12:40:09;16.05;;;6.07;;
76073;SDS011;64776;42.636;24.358;2023-03-01T12:43:22;27.92;;;9.55;;
76073;SDS011;64776;42.636;24.358;2023-03-01T12:46:37;13.20;;;5.07;;
76073;SDS011;64776;42.636;24.358;2023-03-01T12:49:54;17.95;;;5.55;;
76073;SDS011;64776;42.636;24.358;2023-03-01T12:52:58;26.65;;;11.68;;
76073;SDS011;64776;42.636;24.358;2023-03-01T12:55:59;15.65;;;5.82;;
76073;SDS011;64776;42.636;24.358;2023-03-01T12:59:03;15.60;;;5.95;;
76073;SDS011;64776;42.636;24.358;2023-03-01T13:02:14;18.25;;;6.00;;
76073;SDS011;64776;42.636;24.358;2023-03-01T13:05:26;20.15;;;7.70;;
76073;SDS011;64776;42.636;24.358;2023-03-01T13:08:38;38.92;;;13.50;;
76073;SDS011;64776;42.636;24.358;2023-03-01T13:11:44;67.93;;;19.70;;
76073;SDS011;64776;42.636;24.358;2023-03-01T13:14:45;60.63;;;19.35;;
76073;SDS011;64776;42.636;24.358;2023-03-01T13:17:46;32.03;;;10.20;;
76073;SDS011;64776;42.636;24.358;2023-03-01T13:20:48;25.17;;;10.35;;
76073;SDS011;64776;42.636;24.358;2023-03-01T13:23:50;7.78;;;2.63;;
76073;SDS011;64776;42.636;24.358;2023-03-01T13:30:38;21.27;;;8.38;;
76073;SDS011;64776;42.636;24.358;2023-03-01T13:33:41;26.73;;;12.27;;
76073;SDS011;64776;42.636;24.358;2023-03-01T13:36:48;24.65;;;8.55;;
76073;SDS011;64776;42.636;24.358;2023-03-01T13:39:49;11.63;;;5.10;;
76073;SDS011;64776;42.636;24.358;2023-03-01T13:42:50;16.90;;;7.15;;
76073;SDS011;64776;42.636;24.358;2023-03-01T13:45:52;17.17;;;6.05;;
76073;SDS011;64776;42.636;24.358;2023-03-01T13:48:53;23.98;;;7.45;;
76073;SDS011;64776;42.636;24.358;2023-03-01T13:51:57;18.35;;;6.10;;
76073;SDS011;64776;42.636;24.358;2023-03-01T13:54:59;15.80;;;6.07;;
76073;SDS011;64776;42.636;24.358;2023-03-01T13:58:01;14.18;;;4.53;;
76073;SDS011;64776;42.636;24.358;2023-03-01T14:01:04;23.23;;;8.77;;
76073;SDS011;64776;42.636;24.358;2023-03-01T14:04:18;18.17;;;7.97;;
76073;SDS011;64776;42.636;24.358;2023-03-01T14:07:22;18.90;;;7.47;;
76073;SDS011;64776;42.636;24.358;2023-03-01T14:10:25;17.52;;;7.53;;
76073;SDS011;64776;42.636;24.358;2023-03-01T14:13:36;17.85;;;8.57;;
76073;SDS011;64776;42.636;24.358;2023-03-01T14:16:54;28.52;;;12.05;;
76073;SDS011;64776;42.636;24.358;2023-03-01T14:20:09;36.75;;;15.52;;
76073;SDS011;64776;42.636;24.358;2023-03-01T14:23:17;26.88;;;11.38;;
76073;SDS011;64776;42.636;24.358;2023-03-01T14:26:20;16.35;;;6.95;;
76073;SDS011;64776;42.636;24.358;2023-03-01T14:29:25;17.92;;;7.43;;
76073;SDS011;64776;42.636;24.358;2023-03-01T14:32:28;17.83;;;6.53;;
76073;SDS011;64776;42.636;24.358;2023-03-01T14:35:31;24.40;;;9.82;;
76073;SDS011;64776;42.636;24.358;2023-03-01T14:38:35;35.67;;;13.95;;
76073;SDS011;64776;42.636;24.358;2023-03-01T14:41:37;25.55;;;9.38;;
76073;SDS011;64776;42.636;24.358;2023-03-01T14:44:40;29.15;;;12.05;;
76073;SDS011;64776;42.636;24.358;2023-03-01T14:47:43;58.97;;;24.52;;
76073;SDS011;64776;42.636;24.358;2023-03-01T14:50:44;25.40;;;10.82;;
76073;SDS011;64776;42.636;24.358;2023-03-01T14:53:47;30.25;;;12.32;;
76073;SDS011;64776;42.636;24.358;2023-03-01T14:56:48;23.73;;;9.75;;
76073;SDS011;64776;42.636;24.358;2023-03-01T14:59:50;66.57;;;23.40;;
76073;SDS011;64776;42.636;24.358;2023-03-01T15:02:53;35.35;;;14.10;;
76073;SDS011;64776;42.636;24.358;2023-03-01T15:05:56;39.92;;;18.00;;
76073;SDS011;64776;42.636;24.358;2023-03-01T15:08:58;30.23;;;10.13;;
76073;SDS011;64776;42.636;24.358;2023-03-01T15:11:59;40.80;;;13.82;;
76073;SDS011;64776;42.636;24.358;2023-03-01T15:15:00;73.30;;;21.27;;
76073;SDS011;64776;42.636;24.358;2023-03-01T15:18:01;40.47;;;13.02;;
76073;SDS011;64776;42.636;24.358;2023-03-01T15:21:05;19.70;;;8.10;;
76073;SDS011;64776;42.636;24.358;2023-03-01T15:24:16;17.02;;;8.05;;
76073;SDS011;64776;42.636;24.358;2023-03-01T15:30:22;26.33;;;10.60;;
76073;SDS011;64776;42.636;24.358;2023-03-01T15:33:29;22.80;;;9.48;;
76073;SDS011;64776;42.636;24.358;2023-03-01T15:36:33;21.30;;;8.52;;
76073;SDS011;64776;42.636;24.358;2023-03-01T15:39:40;9.13;;;3.25;;
76073;SDS011;64776;42.636;24.358;2023-03-01T15:42:42;19.23;;;6.47;;
76073;SDS011;64776;42.636;24.358;2023-03-01T15:45:43;18.45;;;7.40;;
76073;SDS011;64776;42.636;24.358;2023-03-01T15:48:44;18.00;;;6.93;;
76073;SDS011;64776;42.636;24.358;2023-03-01T15:51:46;16.83;;;6.05;;
76073;SDS011;64776;42.636;24.358;2023-03-01T15:54:49;18.55;;;7.20;;
76073;SDS011;64776;42.636;24.358;2023-03-01T15:57:50;19.88;;;8.25;;
76073;SDS011;64776;42.636;24.358;2023-03-01T16:00:59;24.33;;;10.60;;
76073;SDS011;64776;42.636;24.358;2023-03-01T16:04:00;20.05;;;9.60;;
76073;SDS011;64776;42.636;24.358;2023-03-01T16:07:00;16.90;;;6.25;;
76073;SDS011;64776;42.636;24.358;2023-03-01T16:10:03;19.13;;;6.68;;
76073;SDS011;64776;42.636;24.358;2023-03-01T16:13:05;29.90;;;11.60;;
76073;SDS011;64776;42.636;24.358;2023-03-01T16:16:06;39.05;;;16.63;;
76073;SDS011;64776;42.636;24.358;2023-03-01T16:19:07;33.40;;;13.32;;
76073;SDS011;64776;42.636;24.358;2023-03-01T16:22:08;17.85;;;7.10;;
76073;SDS011;64776;42.636;24.358;2023-03-01T16:25:12;15.18;;;5.65;;
76073;SDS011;64776;42.636;24.358;2023-03-01T16:28:13;24.77;;;8.90;;
76073;SDS011;64776;42.636;24.358;2023-03-01T16:31:16;43.58;;;16.58;;
76073;SDS011;64776;42.636;24.358;2023-03-01T16:34:18;32.05;;;11.45;;
76073;SDS011;64776;42.636;24.358;2023-03-01T16:37:19;34.25;;;14.82;;
76073;SDS011;64776;42.636;24.358;2023-03-01T16:40:22;66.68;;;27.13;;
76073;SDS011;64776;42.636;24.358;2023-03-01T16:43:24;74.53;;;31.48;;
76073;SDS011;64776;42.636;24.358;2023-03-01T16:46:26;62.17;;;28.83;;
76073;SDS011;64776;42.636;24.358;2023-03-01T16:49:28;37.53;;;19.67;;
76073;SDS011;64776;42.636;24.358;2023-03-01T16:52:29;34.30;;;17.10;;
76073;SDS011;64776;42.636;24.358;2023-03-01T16:55:31;46.97;;;22.98;;
76073;SDS011;64776;42.636;24.358;2023-03-01T16:58:32;28.13;;;11.05;;
76073;SDS011;64776;42.636;24.358;2023-03-01T17:01:33;47.70;;;20.00;;
76073;SDS011;64776;42.636;24.358;2023-03-01T17:04:34;54.95;;;22.83;;
76073;SDS011;64776;42.636;24.358;2023-03-01T17:07:34;20.33;;;7.72;;
76073;SDS011;64776;42.636;24.358;2023-03-01T17:10:37;14.88;;;5.88;;
76073;SDS011;64776;42.636;24.358;2023-03-01T17:13:38;12.50;;;4.30;;
76073;SDS011;64776;42.636;24.358;2023-03-01T17:16:39;14.18;;;7.25;;
76073;SDS011;64776;42.636;24.358;2023-03-01T17:19:40;33.63;;;14.07;;
76073;SDS011;64776;42.636;24.358;2023-03-01T17:22:41;37.03;;;15.95;;
76073;SDS011;64776;42.636;24.358;2023-03-01T17:25:43;19.52;;;8.60;;
76073;SDS011;64776;42.636;24.358;2023-03-01T17:28:45;13.25;;;4.70;;
76073;SDS011;64776;42.636;24.358;2023-03-01T17:31:46;57.83;;;27.05;;
76073;SDS011;64776;42.636;24.358;2023-03-01T17:34:46;47.25;;;22.20;;
76073;SDS011;64776;42.636;24.358;2023-03-01T17:37:47;57.40;;;28.17;;
76073;SDS011;64776;42.636;24.358;2023-03-01T17:40:49;36.50;;;16.75;;
76073;SDS011;64776;42.636;24.358;2023-03-01T17:43:51;24.85;;;9.40;;
76073;SDS011;64776;42.636;24.358;2023-03-01T17:46:51;16.40;;;6.57;;
76073;SDS011;64776;42.636;24.358;2023-03-01T17:49:52;13.07;;;4.95;;
76073;SDS011;64776;42.636;24.358;2023-03-01T17:52:53;25.25;;;8.73;;
76073;SDS011;64776;42.636;24.358;2023-03-01T17:55:59;25.85;;;11.18;;
76073;SDS011;64776;42.636;24.358;2023-03-01T17:59:02;36.72;;;13.18;;
76073;SDS011;64776;42.636;24.358;2023-03-01T18:02:03;33.55;;;13.10;;
76073;SDS011;64776;42.636;24.358;2023-03-01T18:05:04;18.40;;;9.07;;
76073;SDS011;64776;42.636;24.358;2023-03-01T18:08:06;22.88;;;10.75;;
76073;SDS011;64776;42.636;24.358;2023-03-01T18:11:08;50.90;;;20.42;;
76073;SDS011;64776;42.636;24.358;2023-03-01T18:14:09;31.35;;;15.38;;
76073;SDS011;64776;42.636;24.358;2023-03-01T18:17:10;30.55;;;13.95;;
76073;SDS011;64776;42.636;24.358;2023-03-01T18:20:11;8.80;;;3.10;;
76073;SDS011;64776;42.636;24.358;2023-03-01T18:23:12;11.55;;;4.32;;
76073;SDS011;64776;42.636;24.358;2023-03-01T18:26:15;18.23;;;8.57;;
76073;SDS011;64776;42.636;24.358;2023-03-01T18:29:15;34.97;;;15.55;;
76073;SDS011;64776;42.636;24.358;2023-03-01T18:32:16;45.53;;;18.33;;
76073;SDS011;64776;42.636;24.358;2023-03-01T18:35:17;29.77;;;11.35;;
76073;SDS011;64776;42.636;24.358;2023-03-01T18:38:19;24.23;;;10.25;;
76073;SDS011;64776;42.636;24.358;2023-03-01T18:41:22;153.13;;;59.33;;
76073;SDS011;64776;42.636;24.358;2023-03-01T18:44:24;49.17;;;20.02;;
76073;SDS011;64776;42.636;24.358;2023-03-01T18:47:25;36.25;;;18.10;;
76073;SDS011;64776;42.636;24.358;2023-03-01T18:50:26;24.77;;;14.25;;
76073;SDS011;64776;42.636;24.358;2023-03-01T18:53:26;17.85;;;8.85;;
76073;SDS011;64776;42.636;24.358;2023-03-01T18:56:29;12.30;;;5.82;;
76073;SDS011;64776;42.636;24.358;2023-03-01T18:59:31;11.85;;;4.25;;